Amery, WI

8:05 AM CST on December 27, 2014 (GMT -0600)
KWIBALSA2 | Change Station
CLOSE
Current Station
Personal Weather Station
Location: Balsam Lake, WI
Elevation: 1191 ft
Nearby Weather Stations
Active Advisory: Winter Weather Advisory Active Notice: Public Information Statement

Elev 1191 ft 45.46 °N, 92.41 °W | Updated 34 seconds ago

Snow
Snow
21.7 °F
Feels Like 22 °F
N
0.0
Wind Variable Wind from NNE
Gusts 4.0 mph

Today
High -- | Low -- °F
--% Chance of Precip.
Yesterday
High -- | Low -- °F
Precip. -- in
7:48 AM 4:32 PM
Waxing Crescent, 37% visible
Pressure 30.05 in
Visibility 2.5 miles
Clouds Scattered Clouds 700 ft
Scattered Clouds 1100 ft
Overcast 2600 ft
Windchill 22 °F
Dew Point 4 °F
Humidity 46%
Rainfall 0.00 in
Snow Depth Not available.
UV 0 out of 12
Pollen .10 out of 12
Air Quality Not available.
Flu Activity Not available.
METAR KOEO 271355Z AUTO 32007KT 2 1/2SM -SN SCT007 SCT011 OVC026 M05/M05 A3005 RMK AO2 T10491049

More Conditions Fewer Conditions

Pressure 30.05 in
Visibility 2.5 miles
Clouds Scattered Clouds 700 ft
Scattered Clouds 1100 ft
Overcast 2600 ft
Windchill 22 °F
Dew Point 4 °F
Humidity 46%
Rainfall 0.00 in
Snow Depth Not available.
UV 0 out of 12
Pollen .10 out of 12
Air Quality Not available.
Flu Activity Not available.
METAR KOEO 271355Z AUTO 32007KT 2 1/2SM -SN SCT007 SCT011 OVC026 M05/M05 A3005 RMK AO2 T10491049

More Conditions Fewer Conditions

10-Day Weather Forecast

Almanac

Astronomy

Dec. 27, 2014 Rise Set
Actual Time
Civil Twilight
Nautical Twilight
Astronomical Twilight
Moon
Length of Visible Light
Length of Day
Tomorrow will be .
, % of the Moon is Illuminated

Today's Extremes

State Highs State Lows

Community

WunderPhotos

Upload Photos

1,780,905 photos uploaded!

WunderBlogs® & News

Nearby

Air Quality

  Air Quality AQ Index Pollutant
Not available.

Snow Depth

Station Depth Elevation

Earthquake Activity

City Distance Mag. Time & Date
Minimum magnitude displayed is 2.5.

Coastal Water Temperatures

Place Temperature

Nearby Weather Stations